Terminal Aerodrome Forecast
Issued by NWS Sterling, VA

Current Version | Previous Version | Text Only | Print | Product List | Glossary On
Versions: 1 2 3 4 5 6 7 8 9 10 11 12
000
FTUS41 KLWX 020538
TAFCHO
TAF
KCHO 020538Z 0206/0306 18004KT P6SM SKC
     FM021300 20008KT P6SM FEW250
     FM021500 20012KT P6SM FEW250
     FM022300 20011G19KT P6SM BKN100=

USA.gov is the U.S. government's official web portal to all federal, state and local government web resources and services.